sensor_id;sensor_type;location;lat;lon;timestamp;temperature;humidity
18779;DHT22;9518;51.720;14.384;2024-02-28T00:00:33;4.70;99.90
18779;DHT22;9518;51.720;14.384;2024-02-28T00:03:01;4.70;99.90
18779;DHT22;9518;51.720;14.384;2024-02-28T00:05:28;4.70;99.90
18779;DHT22;9518;51.720;14.384;2024-02-28T00:07:57;4.60;99.90
18779;DHT22;9518;51.720;14.384;2024-02-28T00:10:24;4.60;99.90
18779;DHT22;9518;51.720;14.384;2024-02-28T00:12:52;4.60;99.90
18779;DHT22;9518;51.720;14.384;2024-02-28T00:15:19;4.60;99.90
18779;DHT22;9518;51.720;14.384;2024-02-28T00:17:46;4.60;99.90
18779;DHT22;9518;51.720;14.384;2024-02-28T00:20:14;4.60;99.90
18779;DHT22;9518;51.720;14.384;2024-02-28T00:22:41;4.70;99.90
18779;DHT22;9518;51.720;14.384;2024-02-28T00:25:09;4.70;99.90
18779;DHT22;9518;51.720;14.384;2024-02-28T00:27:36;4.70;99.90
18779;DHT22;9518;51.720;14.384;2024-02-28T00:30:05;4.60;99.90
18779;DHT22;9518;51.720;14.384;2024-02-28T00:32:32;4.70;99.90
18779;DHT22;9518;51.720;14.384;2024-02-28T00:34:59;4.70;99.90
18779;DHT22;9518;51.720;14.384;2024-02-28T00:37:28;4.70;99.90
18779;DHT22;9518;51.720;14.384;2024-02-28T00:39:55;4.70;99.90
18779;DHT22;9518;51.720;14.384;2024-02-28T00:42:22;4.60;99.90
18779;DHT22;9518;51.720;14.384;2024-02-28T00:44:49;4.80;99.90
18779;DHT22;9518;51.720;14.384;2024-02-28T00:47:16;4.70;99.90
18779;DHT22;9518;51.720;14.384;2024-02-28T00:49:43;4.70;99.90
18779;DHT22;9518;51.720;14.384;2024-02-28T00:52:10;4.70;99.90
18779;DHT22;9518;51.720;14.384;2024-02-28T00:54:39;4.70;99.90
18779;DHT22;9518;51.720;14.384;2024-02-28T00:57:06;4.70;99.90
18779;DHT22;9518;51.720;14.384;2024-02-28T00:59:33;4.70;99.90
18779;DHT22;9518;51.720;14.384;2024-02-28T01:02:00;4.70;99.90
18779;DHT22;9518;51.720;14.384;2024-02-28T01:04:28;4.70;99.90
18779;DHT22;9518;51.720;14.384;2024-02-28T01:06:55;4.70;99.90
18779;DHT22;9518;51.720;14.384;2024-02-28T01:09:22;4.70;99.90
18779;DHT22;9518;51.720;14.384;2024-02-28T01:11:52;4.70;99.90
18779;DHT22;9518;51.720;14.384;2024-02-28T01:14:19;4.60;99.90
18779;DHT22;9518;51.720;14.384;2024-02-28T01:16:47;4.60;99.90
18779;DHT22;9518;51.720;14.384;2024-02-28T01:19:15;4.60;99.90
18779;DHT22;9518;51.720;14.384;2024-02-28T01:21:42;4.60;99.90
18779;DHT22;9518;51.720;14.384;2024-02-28T01:24:09;4.60;99.90
18779;DHT22;9518;51.720;14.384;2024-02-28T01:26:36;4.60;99.90
18779;DHT22;9518;51.720;14.384;2024-02-28T01:29:05;4.70;99.90
18779;DHT22;9518;51.720;14.384;2024-02-28T01:31:32;4.60;99.90
18779;DHT22;9518;51.720;14.384;2024-02-28T01:34:00;4.70;99.90
18779;DHT22;9518;51.720;14.384;2024-02-28T01:36:27;4.70;99.90
18779;DHT22;9518;51.720;14.384;2024-02-28T01:38:54;4.70;99.90
18779;DHT22;9518;51.720;14.384;2024-02-28T01:41:21;4.70;99.90
18779;DHT22;9518;51.720;14.384;2024-02-28T01:43:48;4.60;99.90
18779;DHT22;9518;51.720;14.384;2024-02-28T01:46:23;4.60;99.90
18779;DHT22;9518;51.720;14.384;2024-02-28T01:48:51;4.60;99.90
18779;DHT22;9518;51.720;14.384;2024-02-28T01:51:18;4.50;99.90
18779;DHT22;9518;51.720;14.384;2024-02-28T01:53:46;4.60;99.90
18779;DHT22;9518;51.720;14.384;2024-02-28T01:56:14;4.50;99.90
18779;DHT22;9518;51.720;14.384;2024-02-28T01:58:46;4.60;99.90
18779;DHT22;9518;51.720;14.384;2024-02-28T02:01:15;4.60;99.90
18779;DHT22;9518;51.720;14.384;2024-02-28T02:03:44;4.60;99.90
18779;DHT22;9518;51.720;14.384;2024-02-28T02:06:12;4.70;99.90
18779;DHT22;9518;51.720;14.384;2024-02-28T02:08:39;4.60;99.90
18779;DHT22;9518;51.720;14.384;2024-02-28T02:11:07;4.50;99.90
18779;DHT22;9518;51.720;14.384;2024-02-28T02:13:35;4.50;99.90
18779;DHT22;9518;51.720;14.384;2024-02-28T02:16:02;4.50;99.90
18779;DHT22;9518;51.720;14.384;2024-02-28T02:18:30;4.50;99.90
18779;DHT22;9518;51.720;14.384;2024-02-28T02:21:02;4.50;99.90
18779;DHT22;9518;51.720;14.384;2024-02-28T02:23:33;4.50;99.90
18779;DHT22;9518;51.720;14.384;2024-02-28T02:26:01;4.50;99.90
18779;DHT22;9518;51.720;14.384;2024-02-28T02:28:28;4.50;99.90
18779;DHT22;9518;51.720;14.384;2024-02-28T02:30:55;4.60;99.90
18779;DHT22;9518;51.720;14.384;2024-02-28T02:33:22;4.60;99.90
18779;DHT22;9518;51.720;14.384;2024-02-28T02:35:49;4.60;99.90
18779;DHT22;9518;51.720;14.384;2024-02-28T02:38:16;4.80;99.90
18779;DHT22;9518;51.720;14.384;2024-02-28T02:40:48;4.70;99.90
18779;DHT22;9518;51.720;14.384;2024-02-28T02:43:15;4.60;99.90
18779;DHT22;9518;51.720;14.384;2024-02-28T02:45:42;4.60;99.90
18779;DHT22;9518;51.720;14.384;2024-02-28T02:48:10;4.60;99.90
18779;DHT22;9518;51.720;14.384;2024-02-28T02:50:37;4.60;99.90
18779;DHT22;9518;51.720;14.384;2024-02-28T02:53:04;4.60;99.90
18779;DHT22;9518;51.720;14.384;2024-02-28T02:55:31;4.70;99.90
18779;DHT22;9518;51.720;14.384;2024-02-28T02:58:00;4.60;99.90
18779;DHT22;9518;51.720;14.384;2024-02-28T03:00:28;4.60;99.90
18779;DHT22;9518;51.720;14.384;2024-02-28T03:02:55;4.60;99.90
18779;DHT22;9518;51.720;14.384;2024-02-28T03:05:22;4.60;99.90
18779;DHT22;9518;51.720;14.384;2024-02-28T03:07:49;4.60;99.90
18779;DHT22;9518;51.720;14.384;2024-02-28T03:10:16;4.60;99.90
18779;DHT22;9518;51.720;14.384;2024-02-28T03:12:43;4.60;99.90
18779;DHT22;9518;51.720;14.384;2024-02-28T03:15:12;4.60;99.90
18779;DHT22;9518;51.720;14.384;2024-02-28T03:17:39;4.60;99.90
18779;DHT22;9518;51.720;14.384;2024-02-28T03:20:07;4.60;99.90
18779;DHT22;9518;51.720;14.384;2024-02-28T03:22:35;4.50;99.90
18779;DHT22;9518;51.720;14.384;2024-02-28T03:25:02;4.60;99.90
18779;DHT22;9518;51.720;14.384;2024-02-28T03:27:29;4.60;99.90
18779;DHT22;9518;51.720;14.384;2024-02-28T03:29:56;4.50;99.90
18779;DHT22;9518;51.720;14.384;2024-02-28T03:32:25;4.60;99.90
18779;DHT22;9518;51.720;14.384;2024-02-28T03:34:53;4.70;99.90
18779;DHT22;9518;51.720;14.384;2024-02-28T03:37:19;4.70;99.90
18779;DHT22;9518;51.720;14.384;2024-02-28T03:39:47;4.70;99.90
18779;DHT22;9518;51.720;14.384;2024-02-28T03:42:14;4.60;99.90
18779;DHT22;9518;51.720;14.384;2024-02-28T03:44:41;4.50;99.90
18779;DHT22;9518;51.720;14.384;2024-02-28T03:47:09;4.50;99.90
18779;DHT22;9518;51.720;14.384;2024-02-28T03:49:37;4.50;99.90
18779;DHT22;9518;51.720;14.384;2024-02-28T03:52:05;4.50;99.90
18779;DHT22;9518;51.720;14.384;2024-02-28T03:54:32;4.50;99.90
18779;DHT22;9518;51.720;14.384;2024-02-28T03:56:58;4.50;99.90
18779;DHT22;9518;51.720;14.384;2024-02-28T03:59:25;4.50;99.90
18779;DHT22;9518;51.720;14.384;2024-02-28T04:01:52;4.50;99.90
18779;DHT22;9518;51.720;14.384;2024-02-28T04:04:19;4.50;99.90
18779;DHT22;9518;51.720;14.384;2024-02-28T04:06:49;4.50;99.90
18779;DHT22;9518;51.720;14.384;2024-02-28T04:09:16;4.40;99.90
18779;DHT22;9518;51.720;14.384;2024-02-28T04:11:43;4.40;99.90
18779;DHT22;9518;51.720;14.384;2024-02-28T04:14:10;4.40;99.90
18779;DHT22;9518;51.720;14.384;2024-02-28T04:16:41;4.50;99.90
18779;DHT22;9518;51.720;14.384;2024-02-28T04:19:09;4.50;99.90
18779;DHT22;9518;51.720;14.384;2024-02-28T04:21:36;4.60;99.90
18779;DHT22;9518;51.720;14.384;2024-02-28T04:24:05;4.50;99.90
18779;DHT22;9518;51.720;14.384;2024-02-28T04:26:33;4.50;99.90
18779;DHT22;9518;51.720;14.384;2024-02-28T04:29:00;4.60;99.90
18779;DHT22;9518;51.720;14.384;2024-02-28T04:31:33;4.50;99.90
18779;DHT22;9518;51.720;14.384;2024-02-28T04:34:00;4.50;99.90
18779;DHT22;9518;51.720;14.384;2024-02-28T04:36:27;4.50;99.90
18779;DHT22;9518;51.720;14.384;2024-02-28T04:38:54;4.60;99.90
18779;DHT22;9518;51.720;14.384;2024-02-28T04:41:23;4.50;99.90
18779;DHT22;9518;51.720;14.384;2024-02-28T04:43:50;4.50;99.90
18779;DHT22;9518;51.720;14.384;2024-02-28T04:46:17;4.50;99.90
18779;DHT22;9518;51.720;14.384;2024-02-28T04:48:44;4.60;99.90
18779;DHT22;9518;51.720;14.384;2024-02-28T04:51:11;4.60;99.90
18779;DHT22;9518;51.720;14.384;2024-02-28T04:53:41;4.60;99.90
18779;DHT22;9518;51.720;14.384;2024-02-28T04:56:08;4.50;99.90
18779;DHT22;9518;51.720;14.384;2024-02-28T04:58:37;4.60;99.90
18779;DHT22;9518;51.720;14.384;2024-02-28T05:01:04;4.50;99.90
18779;DHT22;9518;51.720;14.384;2024-02-28T05:03:31;4.50;99.90
18779;DHT22;9518;51.720;14.384;2024-02-28T05:05:58;4.50;99.90
18779;DHT22;9518;51.720;14.384;2024-02-28T05:08:25;4.50;99.90
18779;DHT22;9518;51.720;14.384;2024-02-28T05:10:54;4.50;99.90
18779;DHT22;9518;51.720;14.384;2024-02-28T05:13:21;4.50;99.90
18779;DHT22;9518;51.720;14.384;2024-02-28T05:15:51;4.50;99.90
18779;DHT22;9518;51.720;14.384;2024-02-28T05:18:18;4.50;99.90
18779;DHT22;9518;51.720;14.384;2024-02-28T05:20:45;4.60;99.90
18779;DHT22;9518;51.720;14.384;2024-02-28T05:23:12;4.50;99.90
18779;DHT22;9518;51.720;14.384;2024-02-28T05:25:40;4.60;99.90
18779;DHT22;9518;51.720;14.384;2024-02-28T05:28:07;4.60;99.90
18779;DHT22;9518;51.720;14.384;2024-02-28T05:30:34;4.60;99.90
18779;DHT22;9518;51.720;14.384;2024-02-28T05:33:03;4.50;99.90
18779;DHT22;9518;51.720;14.384;2024-02-28T05:35:30;4.50;99.90
18779;DHT22;9518;51.720;14.384;2024-02-28T05:37:58;4.50;99.90
18779;DHT22;9518;51.720;14.384;2024-02-28T05:40:25;4.40;99.90
18779;DHT22;9518;51.720;14.384;2024-02-28T05:42:54;4.30;99.90
18779;DHT22;9518;51.720;14.384;2024-02-28T05:45:22;4.30;99.90
18779;DHT22;9518;51.720;14.384;2024-02-28T05:47:50;4.30;99.90
18779;DHT22;9518;51.720;14.384;2024-02-28T05:50:18;4.30;99.90
18779;DHT22;9518;51.720;14.384;2024-02-28T05:52:45;4.30;99.90
18779;DHT22;9518;51.720;14.384;2024-02-28T05:55:13;4.30;99.90
18779;DHT22;9518;51.720;14.384;2024-02-28T05:57:40;4.30;99.90
18779;DHT22;9518;51.720;14.384;2024-02-28T06:00:08;4.30;99.90
18779;DHT22;9518;51.720;14.384;2024-02-28T06:02:36;4.40;99.90
18779;DHT22;9518;51.720;14.384;2024-02-28T06:05:04;4.30;99.90
18779;DHT22;9518;51.720;14.384;2024-02-28T06:07:33;4.40;99.90
18779;DHT22;9518;51.720;14.384;2024-02-28T06:10:00;4.40;99.90
18779;DHT22;9518;51.720;14.384;2024-02-28T06:12:27;4.40;99.90
18779;DHT22;9518;51.720;14.384;2024-02-28T06:14:54;4.40;99.90
18779;DHT22;9518;51.720;14.384;2024-02-28T06:17:21;4.40;99.90
18779;DHT22;9518;51.720;14.384;2024-02-28T06:19:48;4.40;99.90
18779;DHT22;9518;51.720;14.384;2024-02-28T06:22:15;4.30;99.90
18779;DHT22;9518;51.720;14.384;2024-02-28T06:24:45;4.40;99.90
18779;DHT22;9518;51.720;14.384;2024-02-28T06:27:12;4.30;99.90
18779;DHT22;9518;51.720;14.384;2024-02-28T06:29:39;4.30;99.90
18779;DHT22;9518;51.720;14.384;2024-02-28T06:32:07;4.30;99.90
18779;DHT22;9518;51.720;14.384;2024-02-28T06:34:34;4.30;99.90
18779;DHT22;9518;51.720;14.384;2024-02-28T06:37:01;4.20;99.90
18779;DHT22;9518;51.720;14.384;2024-02-28T06:39:29;4.30;99.90
18779;DHT22;9518;51.720;14.384;2024-02-28T06:41:57;4.40;99.90
18779;DHT22;9518;51.720;14.384;2024-02-28T06:44:24;4.30;99.90
18779;DHT22;9518;51.720;14.384;2024-02-28T06:46:51;4.40;99.90
18779;DHT22;9518;51.720;14.384;2024-02-28T06:49:19;4.40;99.90
18779;DHT22;9518;51.720;14.384;2024-02-28T06:51:46;4.30;99.90
18779;DHT22;9518;51.720;14.384;2024-02-28T06:54:13;4.30;99.90
18779;DHT22;9518;51.720;14.384;2024-02-28T06:56:40;4.30;99.90
18779;DHT22;9518;51.720;14.384;2024-02-28T06:59:08;4.30;99.90
18779;DHT22;9518;51.720;14.384;2024-02-28T07:01:35;4.30;99.90
18779;DHT22;9518;51.720;14.384;2024-02-28T07:04:03;4.30;99.90
18779;DHT22;9518;51.720;14.384;2024-02-28T07:06:30;4.20;99.90
18779;DHT22;9518;51.720;14.384;2024-02-28T07:08:57;4.30;99.90
18779;DHT22;9518;51.720;14.384;2024-02-28T07:11:24;4.30;99.90
18779;DHT22;9518;51.720;14.384;2024-02-28T07:13:51;4.20;99.90
18779;DHT22;9518;51.720;14.384;2024-02-28T07:16:19;4.20;99.90
18779;DHT22;9518;51.720;14.384;2024-02-28T07:18:46;4.20;99.90
18779;DHT22;9518;51.720;14.384;2024-02-28T07:21:13;4.20;99.90
18779;DHT22;9518;51.720;14.384;2024-02-28T07:23:41;4.20;99.90
18779;DHT22;9518;51.720;14.384;2024-02-28T07:26:14;4.20;99.90
18779;DHT22;9518;51.720;14.384;2024-02-28T07:28:41;4.20;99.90
18779;DHT22;9518;51.720;14.384;2024-02-28T07:31:14;4.20;99.90
18779;DHT22;9518;51.720;14.384;2024-02-28T07:33:43;4.20;99.90
18779;DHT22;9518;51.720;14.384;2024-02-28T07:36:10;4.20;99.90
18779;DHT22;9518;51.720;14.384;2024-02-28T07:38:37;4.30;99.90
18779;DHT22;9518;51.720;14.384;2024-02-28T07:41:06;4.20;99.90
18779;DHT22;9518;51.720;14.384;2024-02-28T07:43:33;4.20;99.90
18779;DHT22;9518;51.720;14.384;2024-02-28T07:46:06;4.20;99.90
18779;DHT22;9518;51.720;14.384;2024-02-28T07:48:33;4.20;99.90
18779;DHT22;9518;51.720;14.384;2024-02-28T07:51:04;4.30;99.90
18779;DHT22;9518;51.720;14.384;2024-02-28T07:53:31;4.40;99.90
18779;DHT22;9518;51.720;14.384;2024-02-28T07:55:58;4.40;99.90
18779;DHT22;9518;51.720;14.384;2024-02-28T07:58:25;4.40;99.90
18779;DHT22;9518;51.720;14.384;2024-02-28T08:00:52;4.30;99.90
18779;DHT22;9518;51.720;14.384;2024-02-28T08:03:19;4.30;99.90
18779;DHT22;9518;51.720;14.384;2024-02-28T08:05:46;4.30;99.90
18779;DHT22;9518;51.720;14.384;2024-02-28T08:08:15;4.20;99.90
18779;DHT22;9518;51.720;14.384;2024-02-28T08:10:43;4.30;99.90
18779;DHT22;9518;51.720;14.384;2024-02-28T08:13:11;4.30;99.90
18779;DHT22;9518;51.720;14.384;2024-02-28T08:15:39;4.30;99.90
18779;DHT22;9518;51.720;14.384;2024-02-28T08:18:06;4.20;99.90
18779;DHT22;9518;51.720;14.384;2024-02-28T08:20:33;4.20;99.90
18779;DHT22;9518;51.720;14.384;2024-02-28T08:23:01;4.20;99.90
18779;DHT22;9518;51.720;14.384;2024-02-28T08:25:30;4.20;99.90
18779;DHT22;9518;51.720;14.384;2024-02-28T08:27:59;4.20;99.90
18779;DHT22;9518;51.720;14.384;2024-02-28T08:30:26;4.20;99.90
18779;DHT22;9518;51.720;14.384;2024-02-28T08:32:53;4.20;99.90
18779;DHT22;9518;51.720;14.384;2024-02-28T08:35:20;4.20;99.90
18779;DHT22;9518;51.720;14.384;2024-02-28T08:37:48;4.20;99.90
18779;DHT22;9518;51.720;14.384;2024-02-28T08:40:16;4.10;99.90
18779;DHT22;9518;51.720;14.384;2024-02-28T08:42:44;4.10;99.90
18779;DHT22;9518;51.720;14.384;2024-02-28T08:45:12;4.10;99.90
18779;DHT22;9518;51.720;14.384;2024-02-28T08:47:39;4.20;99.90
18779;DHT22;9518;51.720;14.384;2024-02-28T08:50:07;4.30;99.90
18779;DHT22;9518;51.720;14.384;2024-02-28T08:52:34;4.30;99.90
18779;DHT22;9518;51.720;14.384;2024-02-28T08:55:01;4.30;99.90
18779;DHT22;9518;51.720;14.384;2024-02-28T08:57:29;4.20;99.90
18779;DHT22;9518;51.720;14.384;2024-02-28T08:59:58;4.30;99.90
18779;DHT22;9518;51.720;14.384;2024-02-28T09:02:25;4.30;99.90
18779;DHT22;9518;51.720;14.384;2024-02-28T09:04:53;4.30;99.90
18779;DHT22;9518;51.720;14.384;2024-02-28T09:07:22;4.30;99.90
18779;DHT22;9518;51.720;14.384;2024-02-28T09:09:49;4.40;99.90
18779;DHT22;9518;51.720;14.384;2024-02-28T09:12:18;4.40;99.90
18779;DHT22;9518;51.720;14.384;2024-02-28T09:14:45;4.40;99.90
18779;DHT22;9518;51.720;14.384;2024-02-28T09:17:14;4.40;99.90
18779;DHT22;9518;51.720;14.384;2024-02-28T09:19:41;4.40;99.90
18779;DHT22;9518;51.720;14.384;2024-02-28T09:22:09;4.40;99.90
18779;DHT22;9518;51.720;14.384;2024-02-28T09:24:37;4.40;99.90
18779;DHT22;9518;51.720;14.384;2024-02-28T09:27:05;4.40;99.90
18779;DHT22;9518;51.720;14.384;2024-02-28T09:29:32;4.40;99.90
18779;DHT22;9518;51.720;14.384;2024-02-28T09:31:59;4.30;99.90
18779;DHT22;9518;51.720;14.384;2024-02-28T09:34:27;4.40;99.90
18779;DHT22;9518;51.720;14.384;2024-02-28T09:36:54;4.50;99.90
18779;DHT22;9518;51.720;14.384;2024-02-28T09:39:22;4.50;99.90
18779;DHT22;9518;51.720;14.384;2024-02-28T09:41:49;4.50;99.90
18779;DHT22;9518;51.720;14.384;2024-02-28T09:44:16;4.50;99.90
18779;DHT22;9518;51.720;14.384;2024-02-28T09:46:44;4.50;99.90
18779;DHT22;9518;51.720;14.384;2024-02-28T09:49:12;4.60;99.90
18779;DHT22;9518;51.720;14.384;2024-02-28T09:51:43;4.60;99.90
18779;DHT22;9518;51.720;14.384;2024-02-28T09:54:10;4.50;99.90
18779;DHT22;9518;51.720;14.384;2024-02-28T09:56:37;4.50;99.90
18779;DHT22;9518;51.720;14.384;2024-02-28T09:59:04;4.40;99.90
18779;DHT22;9518;51.720;14.384;2024-02-28T10:01:34;4.50;99.90
18779;DHT22;9518;51.720;14.384;2024-02-28T10:04:02;4.50;99.90
18779;DHT22;9518;51.720;14.384;2024-02-28T10:06:29;4.50;99.90
18779;DHT22;9518;51.720;14.384;2024-02-28T10:08:59;4.50;99.90
18779;DHT22;9518;51.720;14.384;2024-02-28T10:11:26;4.50;99.90
18779;DHT22;9518;51.720;14.384;2024-02-28T10:13:53;4.50;99.90
18779;DHT22;9518;51.720;14.384;2024-02-28T10:16:21;4.50;99.90
18779;DHT22;9518;51.720;14.384;2024-02-28T10:18:48;4.50;99.90
18779;DHT22;9518;51.720;14.384;2024-02-28T10:21:15;4.60;99.90
18779;DHT22;9518;51.720;14.384;2024-02-28T10:23:43;4.60;99.90
18779;DHT22;9518;51.720;14.384;2024-02-28T10:26:12;4.60;99.90
18779;DHT22;9518;51.720;14.384;2024-02-28T10:28:40;4.60;99.90
18779;DHT22;9518;51.720;14.384;2024-02-28T10:31:09;4.60;99.90
18779;DHT22;9518;51.720;14.384;2024-02-28T10:33:37;4.60;99.90
18779;DHT22;9518;51.720;14.384;2024-02-28T10:36:06;4.60;99.90
18779;DHT22;9518;51.720;14.384;2024-02-28T10:38:33;4.60;99.90
18779;DHT22;9518;51.720;14.384;2024-02-28T10:41:02;4.60;99.90
18779;DHT22;9518;51.720;14.384;2024-02-28T10:43:31;4.50;99.90
18779;DHT22;9518;51.720;14.384;2024-02-28T10:46:00;4.50;99.90
18779;DHT22;9518;51.720;14.384;2024-02-28T10:48:27;4.60;99.90
18779;DHT22;9518;51.720;14.384;2024-02-28T10:50:54;4.50;99.90
18779;DHT22;9518;51.720;14.384;2024-02-28T10:53:23;4.50;99.90
18779;DHT22;9518;51.720;14.384;2024-02-28T10:55:58;4.60;99.90
18779;DHT22;9518;51.720;14.384;2024-02-28T10:58:34;4.60;99.90
18779;DHT22;9518;51.720;14.384;2024-02-28T11:01:02;4.60;99.90
18779;DHT22;9518;51.720;14.384;2024-02-28T11:03:30;4.70;99.90
18779;DHT22;9518;51.720;14.384;2024-02-28T11:05:57;4.70;99.90
18779;DHT22;9518;51.720;14.384;2024-02-28T11:08:27;4.80;99.90
18779;DHT22;9518;51.720;14.384;2024-02-28T11:10:55;4.80;99.90
18779;DHT22;9518;51.720;14.384;2024-02-28T11:13:23;4.90;99.90
18779;DHT22;9518;51.720;14.384;2024-02-28T11:15:52;4.80;99.90
18779;DHT22;9518;51.720;14.384;2024-02-28T11:18:19;4.80;99.90
18779;DHT22;9518;51.720;14.384;2024-02-28T11:20:46;4.70;99.90
18779;DHT22;9518;51.720;14.384;2024-02-28T11:23:14;4.70;99.90
18779;DHT22;9518;51.720;14.384;2024-02-28T11:25:43;4.80;99.90
18779;DHT22;9518;51.720;14.384;2024-02-28T11:28:11;4.70;99.90
18779;DHT22;9518;51.720;14.384;2024-02-28T11:30:38;4.70;99.90
18779;DHT22;9518;51.720;14.384;2024-02-28T11:33:06;4.60;99.90
18779;DHT22;9518;51.720;14.384;2024-02-28T11:35:35;4.60;99.90
18779;DHT22;9518;51.720;14.384;2024-02-28T11:38:02;4.60;99.90
18779;DHT22;9518;51.720;14.384;2024-02-28T11:40:29;4.70;99.90
18779;DHT22;9518;51.720;14.384;2024-02-28T11:42:56;4.60;99.90
18779;DHT22;9518;51.720;14.384;2024-02-28T11:45:25;4.60;99.90
18779;DHT22;9518;51.720;14.384;2024-02-28T11:47:54;4.80;99.90
18779;DHT22;9518;51.720;14.384;2024-02-28T11:50:22;4.80;99.90
18779;DHT22;9518;51.720;14.384;2024-02-28T11:52:51;4.70;99.90
18779;DHT22;9518;51.720;14.384;2024-02-28T11:55:19;4.70;99.90
18779;DHT22;9518;51.720;14.384;2024-02-28T11:57:46;4.80;99.90
18779;DHT22;9518;51.720;14.384;2024-02-28T12:00:13;4.80;99.90
18779;DHT22;9518;51.720;14.384;2024-02-28T12:02:41;4.90;99.90
18779;DHT22;9518;51.720;14.384;2024-02-28T12:05:08;4.90;99.90
18779;DHT22;9518;51.720;14.384;2024-02-28T12:07:37;4.80;99.90
18779;DHT22;9518;51.720;14.384;2024-02-28T12:10:05;4.80;99.90
18779;DHT22;9518;51.720;14.384;2024-02-28T12:12:34;4.90;99.90
18779;DHT22;9518;51.720;14.384;2024-02-28T12:15:01;4.90;99.90
18779;DHT22;9518;51.720;14.384;2024-02-28T12:17:30;4.90;99.90
18779;DHT22;9518;51.720;14.384;2024-02-28T12:19:59;5.10;99.90
18779;DHT22;9518;51.720;14.384;2024-02-28T12:22:26;5.00;99.90
18779;DHT22;9518;51.720;14.384;2024-02-28T12:24:55;5.00;99.90
18779;DHT22;9518;51.720;14.384;2024-02-28T12:27:23;4.90;99.90
18779;DHT22;9518;51.720;14.384;2024-02-28T12:29:50;4.90;99.90
18779;DHT22;9518;51.720;14.384;2024-02-28T12:32:17;4.90;99.90
18779;DHT22;9518;51.720;14.384;2024-02-28T12:34:44;4.90;99.90
18779;DHT22;9518;51.720;14.384;2024-02-28T12:37:12;4.90;99.90
18779;DHT22;9518;51.720;14.384;2024-02-28T12:39:39;4.90;99.90
18779;DHT22;9518;51.720;14.384;2024-02-28T12:42:07;4.80;99.90
18779;DHT22;9518;51.720;14.384;2024-02-28T12:44:35;4.70;99.90
18779;DHT22;9518;51.720;14.384;2024-02-28T12:47:04;4.70;99.90
18779;DHT22;9518;51.720;14.384;2024-02-28T12:49:31;4.70;99.90
18779;DHT22;9518;51.720;14.384;2024-02-28T12:51:58;4.70;99.90
18779;DHT22;9518;51.720;14.384;2024-02-28T12:54:25;4.70;99.90
18779;DHT22;9518;51.720;14.384;2024-02-28T12:56:52;4.80;99.90
18779;DHT22;9518;51.720;14.384;2024-02-28T12:59:20;4.70;99.90
18779;DHT22;9518;51.720;14.384;2024-02-28T13:01:47;4.70;99.90
18779;DHT22;9518;51.720;14.384;2024-02-28T13:04:15;4.70;99.90
18779;DHT22;9518;51.720;14.384;2024-02-28T13:06:42;4.70;99.90
18779;DHT22;9518;51.720;14.384;2024-02-28T13:09:10;4.70;99.90
18779;DHT22;9518;51.720;14.384;2024-02-28T13:11:39;4.60;99.90
18779;DHT22;9518;51.720;14.384;2024-02-28T13:14:06;4.60;99.90
18779;DHT22;9518;51.720;14.384;2024-02-28T13:16:35;4.60;99.90
18779;DHT22;9518;51.720;14.384;2024-02-28T13:19:03;4.70;99.90
18779;DHT22;9518;51.720;14.384;2024-02-28T13:21:31;4.80;99.90
18779;DHT22;9518;51.720;14.384;2024-02-28T13:24:01;4.70;99.90
18779;DHT22;9518;51.720;14.384;2024-02-28T13:26:28;4.80;99.90
18779;DHT22;9518;51.720;14.384;2024-02-28T13:28:55;4.70;99.90
18779;DHT22;9518;51.720;14.384;2024-02-28T13:31:23;4.70;99.90
18779;DHT22;9518;51.720;14.384;2024-02-28T13:33:52;4.80;99.90
18779;DHT22;9518;51.720;14.384;2024-02-28T13:36:19;4.70;99.90
18779;DHT22;9518;51.720;14.384;2024-02-28T13:38:46;4.60;99.90
18779;DHT22;9518;51.720;14.384;2024-02-28T13:41:13;4.50;99.90
18779;DHT22;9518;51.720;14.384;2024-02-28T13:43:41;4.50;99.90
18779;DHT22;9518;51.720;14.384;2024-02-28T13:46:09;4.60;99.90
18779;DHT22;9518;51.720;14.384;2024-02-28T13:48:37;4.70;99.90
18779;DHT22;9518;51.720;14.384;2024-02-28T13:51:06;4.70;99.90
18779;DHT22;9518;51.720;14.384;2024-02-28T13:53:33;4.70;99.90
18779;DHT22;9518;51.720;14.384;2024-02-28T13:56:00;4.80;99.90
18779;DHT22;9518;51.720;14.384;2024-02-28T13:58:28;4.90;99.90
18779;DHT22;9518;51.720;14.384;2024-02-28T14:00:55;4.90;99.90
18779;DHT22;9518;51.720;14.384;2024-02-28T14:03:22;4.90;99.90
18779;DHT22;9518;51.720;14.384;2024-02-28T14:05:51;5.00;99.90
18779;DHT22;9518;51.720;14.384;2024-02-28T14:08:19;5.00;99.90
18779;DHT22;9518;51.720;14.384;2024-02-28T14:10:46;5.00;99.90
18779;DHT22;9518;51.720;14.384;2024-02-28T14:13:14;4.90;99.90
18779;DHT22;9518;51.720;14.384;2024-02-28T14:15:43;4.90;99.90
18779;DHT22;9518;51.720;14.384;2024-02-28T14:18:11;4.90;99.90
18779;DHT22;9518;51.720;14.384;2024-02-28T14:20:38;4.90;99.90
18779;DHT22;9518;51.720;14.384;2024-02-28T14:23:05;4.90;99.90
18779;DHT22;9518;51.720;14.384;2024-02-28T14:25:34;5.10;99.90
18779;DHT22;9518;51.720;14.384;2024-02-28T14:28:03;5.00;99.90
18779;DHT22;9518;51.720;14.384;2024-02-28T14:30:30;5.00;99.90
18779;DHT22;9518;51.720;14.384;2024-02-28T14:32:57;4.90;99.90
18779;DHT22;9518;51.720;14.384;2024-02-28T14:35:24;4.80;99.90
18779;DHT22;9518;51.720;14.384;2024-02-28T14:37:51;4.80;99.90
18779;DHT22;9518;51.720;14.384;2024-02-28T14:40:20;4.70;99.90
18779;DHT22;9518;51.720;14.384;2024-02-28T14:42:48;4.70;99.90
18779;DHT22;9518;51.720;14.384;2024-02-28T14:45:15;4.70;99.90
18779;DHT22;9518;51.720;14.384;2024-02-28T14:47:44;4.70;99.90
18779;DHT22;9518;51.720;14.384;2024-02-28T14:50:11;4.70;99.90
18779;DHT22;9518;51.720;14.384;2024-02-28T14:52:39;4.80;99.90
18779;DHT22;9518;51.720;14.384;2024-02-28T14:55:08;4.80;99.90
18779;DHT22;9518;51.720;14.384;2024-02-28T14:57:36;4.90;99.90
18779;DHT22;9518;51.720;14.384;2024-02-28T15:00:06;5.00;99.90
18779;DHT22;9518;51.720;14.384;2024-02-28T15:02:34;5.00;99.90
18779;DHT22;9518;51.720;14.384;2024-02-28T15:05:02;5.00;99.90
18779;DHT22;9518;51.720;14.384;2024-02-28T15:07:31;5.00;99.90
18779;DHT22;9518;51.720;14.384;2024-02-28T15:09:58;5.00;99.90
18779;DHT22;9518;51.720;14.384;2024-02-28T15:12:26;5.10;99.90
18779;DHT22;9518;51.720;14.384;2024-02-28T15:14:53;5.00;99.90
18779;DHT22;9518;51.720;14.384;2024-02-28T15:17:22;4.90;99.90
18779;DHT22;9518;51.720;14.384;2024-02-28T15:19:49;4.90;99.90
18779;DHT22;9518;51.720;14.384;2024-02-28T15:22:16;5.00;99.90
18779;DHT22;9518;51.720;14.384;2024-02-28T15:24:43;5.00;99.90
18779;DHT22;9518;51.720;14.384;2024-02-28T15:27:10;5.00;99.90
18779;DHT22;9518;51.720;14.384;2024-02-28T15:29:38;4.90;99.90
18779;DHT22;9518;51.720;14.384;2024-02-28T15:32:06;5.00;99.90
18779;DHT22;9518;51.720;14.384;2024-02-28T15:34:34;5.10;99.90
18779;DHT22;9518;51.720;14.384;2024-02-28T15:37:01;5.10;99.90
18779;DHT22;9518;51.720;14.384;2024-02-28T15:39:28;5.10;99.90
18779;DHT22;9518;51.720;14.384;2024-02-28T15:41:56;5.00;99.90
18779;DHT22;9518;51.720;14.384;2024-02-28T15:44:23;5.00;99.90
18779;DHT22;9518;51.720;14.384;2024-02-28T15:46:50;5.00;99.90